Time;durP1;ratioP1;P1;durP2;ratioP2;P2;SDS_P1;SDS_P2;PMS_P1;PMS_P2;Temp;Humidity;BMP_temperature;BMP_pressure;BME280_temperature;BME280_humidity;BME280_pressure;Samples;Min_cycle;Max_cycle;Signal;HPM_P1;HPM_P2
2023/04/20 00:01:35;;;;;;;17.92;7.80;;;;;;;;;;10536314;28;20289;-78
2023/04/20 00:06:37;;;;;;;;;;;;;;;;;;10537887;28;20082;-78
2023/04/20 00:11:40;;;;;;;11.80;5.38;;;;;;;;;;10548027;27;20352;-78
2023/04/20 00:16:44;;;;;;;13.63;5.60;;;;;;;;;;10555442;27;20071;-78
2023/04/20 00:21:47;;;;;;;;;;;;;;;;;;10553460;27;20044;-77
2023/04/20 00:26:50;;;;;;;13.00;5.30;;;;;;;;;;10553101;27;20026;-77
2023/04/20 00:31:55;;;;;;;14.03;5.47;;;;;;;;;;10544846;27;20139;-78
2023/04/20 00:36:58;;;;;;;14.10;6.53;;;;;;;;;;10562541;27;20035;-77
2023/04/20 00:42:05;;;;;;;15.23;6.28;;;;;;;;;;10532556;28;20544;-75
2023/04/20 00:47:11;;;;;;;14.27;5.85;;;;;;;;;;10552339;27;20039;-77
2023/04/20 00:52:14;;;;;;;11.38;4.63;;;;;;;;;;10551750;27;20036;-76
2023/04/20 00:57:18;;;;;;;11.90;4.55;;;;;;;;;;10560612;27;20058;-77
2023/04/20 01:02:22;;;;;;;12.38;5.78;;;;;;;;;;10557268;27;20487;-75
2023/04/20 01:07:26;;;;;;;13.25;6.13;;;;;;;;;;10544832;27;20027;-75
2023/04/20 01:12:28;;;;;;;16.70;7.10;;;;;;;;;;10549128;27;20044;-76
2023/04/20 01:17:33;;;;;;;14.23;5.28;;;;;;;;;;10524098;27;20035;-77
2023/04/20 01:22:43;;;;;;;11.23;5.35;;;;;;;;;;10554101;27;20040;-76
2023/04/20 01:27:46;;;;;;;14.02;6.13;;;;;;;;;;10549703;27;20040;-76
2023/04/20 01:32:49;;;;;;;14.95;5.30;;;;;;;;;;10548380;27;20036;-76
2023/04/20 01:37:54;;;;;;;14.83;6.00;;;;;;;;;;10543108;28;20046;-76
2023/04/20 01:42:57;;;;;;;12.88;5.85;;;;;;;;;;10557457;27;20305;-77
2023/04/20 01:48:01;;;;;;;8.63;3.85;;;;;;;;;;10548921;27;20511;-76
2023/04/20 01:53:05;;;;;;;14.45;5.75;;;;;;;;;;10538896;27;20044;-76
2023/04/20 01:58:08;;;;;;;6.50;3.38;;;;;;;;;;10548155;27;20047;-77
2023/04/20 02:03:10;;;;;;;14.65;6.35;;;;;;;;;;10551590;27;20025;-76
2023/04/20 02:08:16;;;;;;;13.02;5.25;;;;;;;;;;10553546;27;20599;-77
2023/04/20 02:13:19;;;;;;;11.23;5.00;;;;;;;;;;10545757;27;20034;-78
2023/04/20 02:18:25;;;;;;;11.60;3.97;;;;;;;;;;10553136;27;20220;-76
2023/04/20 02:23:29;;;;;;;7.55;3.55;;;;;;;;;;10550748;27;20130;-77
2023/04/20 02:28:33;;;;;;;11.35;4.00;;;;;;;;;;10557622;27;20342;-77
2023/04/20 02:33:36;;;;;;;9.57;3.63;;;;;;;;;;10558467;27;20087;-77
2023/04/20 02:38:40;;;;;;;7.22;2.80;;;;;;;;;;10548735;27;20050;-77
2023/04/20 02:43:43;;;;;;;5.10;2.47;;;;;;;;;;10545152;27;20047;-77
2023/04/20 02:48:47;;;;;;;5.60;2.30;;;;;;;;;;10529296;27;20126;-76
2023/04/20 02:53:52;;;;;;;4.35;2.08;;;;;;;;;;10540315;27;20043;-77
2023/04/20 02:58:55;;;;;;;8.32;2.72;;;;;;;;;;10557308;27;20143;-78
2023/04/20 03:03:58;;;;;;;10.18;3.25;;;;;;;;;;10548787;27;20402;-77
2023/04/20 03:09:03;;;;;;;10.93;3.33;;;;;;;;;;10543393;28;20039;-79
2023/04/20 03:14:05;;;;;;;;;;;;;;;;;;10553583;27;20044;-77
2023/04/20 03:19:08;;;;;;;5.72;2.95;;;;;;;;;;10551509;28;20375;-78
2023/04/20 03:24:12;;;;;;;11.32;3.88;;;;;;;;;;10550338;28;20118;-77
2023/04/20 03:29:15;;;;;;;10.00;4.07;;;;;;;;;;10541152;28;20135;-76
2023/04/20 03:34:20;;;;;;;11.95;3.97;;;;;;;;;;10550595;28;20134;-77
2023/04/20 03:39:25;;;;;;;8.32;3.53;;;;;;;;;;10546073;28;20039;-77
2023/04/20 03:44:28;;;;;;;10.38;4.22;;;;;;;;;;10573142;27;20039;-76
2023/04/20 03:49:31;;;;;;;10.32;4.63;;;;;;;;;;10565351;27;20047;-76
2023/04/20 03:54:35;;;;;;;9.65;3.25;;;;;;;;;;10559538;27;20094;-76
2023/04/20 03:59:38;;;;;;;;;;;;;;;;;;10544462;27;20405;-75
2023/04/20 04:04:41;;;;;;;11.93;4.40;;;;;;;;;;10548645;27;19920;-76
2023/04/20 04:09:45;;;;;;;5.15;2.53;;;;;;;;;;10543844;27;20245;-77
2023/04/20 04:14:48;;;;;;;6.18;3.35;;;;;;;;;;10547650;28;20059;-78
2023/04/20 04:19:50;;;;;;;4.93;2.92;;;;;;;;;;10564167;27;20504;-78
2023/04/20 04:24:54;;;;;;;6.85;2.38;;;;;;;;;;10555800;27;20038;-77
2023/04/20 04:29:57;;;;;;;9.57;3.72;;;;;;;;;;10556495;28;20047;-78
2023/04/20 04:35:01;;;;;;;9.48;3.80;;;;;;;;;;10558894;27;20040;-73
2023/04/20 04:40:07;;;;;;;8.35;3.78;;;;;;;;;;10565321;27;20047;-73
2023/04/20 04:45:12;;;;;;;12.18;4.00;;;;;;;;;;10554173;27;20043;-75
2023/04/20 04:50:17;;;;;;;9.45;3.88;;;;;;;;;;10565812;27;20036;-75
2023/04/20 04:55:21;;;;;;;7.00;3.03;;;;;;;;;;10547118;27;20401;-75
2023/04/20 05:00:25;;;;;;;9.25;4.47;;;;;;;;;;10560493;27;20035;-76
2023/04/20 05:05:32;;;;;;;8.73;3.80;;;;;;;;;;10571031;27;20043;-77
2023/04/20 05:10:37;;;;;;;6.00;3.17;;;;;;;;;;10546942;27;20079;-78
2023/04/20 05:15:41;;;;;;;9.65;3.72;;;;;;;;;;10558015;27;20043;-77
2023/04/20 05:20:45;;;;;;;;;;;;;;;;;;10565350;27;20048;-75
2023/04/20 05:25:49;;;;;;;7.22;3.10;;;;;;;;;;10556055;27;20023;-76
2023/04/20 05:30:54;;;;;;;6.50;3.17;;;;;;;;;;10561560;27;20040;-77
2023/04/20 05:35:57;;;;;;;6.93;2.78;;;;;;;;;;10553198;27;20126;-76
2023/04/20 05:41:01;;;;;;;2.92;1.30;;;;;;;;;;10561757;27;20031;-76
2023/04/20 05:46:05;;;;;;;7.82;3.47;;;;;;;;;;10556562;27;20063;-75
2023/04/20 05:51:08;;;;;;;6.78;3.10;;;;;;;;;;10559414;27;20028;-75
2023/04/20 05:56:12;;;;;;;6.63;3.47;;;;;;;;;;10560010;27;20066;-77
2023/04/20 06:01:16;;;;;;;11.10;3.58;;;;;;;;;;10560683;27;20096;-77
2023/04/20 06:06:19;;;;;;;5.43;2.05;;;;;;;;;;10559697;27;20122;-78
2023/04/20 06:11:23;;;;;;;5.35;2.35;;;;;;;;;;10560947;27;20122;-76
2023/04/20 06:16:26;;;;;;;4.63;1.98;;;;;;;;;;10555775;27;20044;-79
2023/04/20 06:21:33;;;;;;;6.50;3.72;;;;;;;;;;10577888;27;20036;-77
2023/04/20 06:26:36;;;;;;;8.40;3.88;;;;;;;;;;10563093;27;20032;-77
2023/04/20 06:31:39;;;;;;;5.03;2.60;;;;;;;;;;10555839;27;20499;-79
2023/04/20 06:36:43;;;;;;;6.57;3.65;;;;;;;;;;10560109;27;20036;-78
2023/04/20 06:41:47;;;;;;;5.68;2.88;;;;;;;;;;10533848;27;20527;-76
2023/04/20 06:46:50;;;;;;;;;;;;;;;;;;10555778;27;20206;-78
2023/04/20 06:51:52;;;;;;;6.50;2.45;;;;;;;;;;10572183;27;19920;-76
2023/04/20 06:56:56;;;;;;;8.35;3.47;;;;;;;;;;10557217;27;20043;-76
2023/04/20 07:01:59;;;;;;;10.32;4.65;;;;;;;;;;10562252;27;20040;-76
2023/04/20 07:07:02;;;;;;;9.52;4.00;;;;;;;;;;10541610;28;20131;-76
2023/04/20 07:12:06;;;;;;;9.88;3.88;;;;;;;;;;10547332;27;20126;-77
2023/04/20 07:17:08;;;;;;;;;;;;;;;;;;10561337;28;20052;-77
2023/04/20 07:22:17;;;;;;;5.53;2.65;;;;;;;;;;10554789;28;20376;-77
2023/04/20 07:27:20;;;;;;;9.27;4.25;;;;;;;;;;10563831;28;20048;-77
2023/04/20 07:32:23;;;;;;;7.38;3.72;;;;;;;;;;10555192;28;20036;-76
2023/04/20 07:37:27;;;;;;;4.93;2.47;;;;;;;;;;10567572;28;20047;-78
2023/04/20 07:42:31;;;;;;;7.40;2.78;;;;;;;;;;10548662;28;20043;-78
2023/04/20 07:47:34;;;;;;;;;;;;;;;;;;10560926;28;20047;-77
2023/04/20 07:52:37;;;;;;;7.60;3.28;;;;;;;;;;10552287;28;20364;-76
2023/04/20 07:57:41;;;;;;;9.18;4.15;;;;;;;;;;10561994;28;20122;-77
2023/04/20 08:02:44;;;;;;;4.75;2.70;;;;;;;;;;10553370;28;20044;-78
2023/04/20 08:07:46;;;;;;;5.85;3.30;;;;;;;;;;10547563;28;20142;-76
2023/04/20 08:12:52;;;;;;;5.68;2.42;;;;;;;;;;10551290;28;20416;-77
2023/04/20 08:17:55;;;;;;;7.35;2.90;;;;;;;;;;10551094;28;20322;-76
2023/04/20 08:22:58;;;;;;;5.97;3.20;;;;;;;;;;10546073;28;20032;-77
2023/04/20 08:28:02;;;;;;;4.25;2.45;;;;;;;;;;10554050;28;20628;-79
2023/04/20 08:33:08;;;;;;;8.38;3.90;;;;;;;;;;10546077;27;20042;-77
2023/04/20 08:38:11;;;;;;;4.25;2.25;;;;;;;;;;10564200;27;20089;-76
2023/04/20 08:43:21;;;;;;;9.98;3.25;;;;;;;;;;10565768;27;20036;-77
2023/04/20 08:48:25;;;;;;;6.75;3.35;;;;;;;;;;10558342;27;20515;-76
2023/04/20 08:53:28;;;;;;;4.05;2.10;;;;;;;;;;10557039;27;20352;-77
2023/04/20 08:58:32;;;;;;;7.40;3.95;;;;;;;;;;10570650;27;20040;-77
2023/04/20 09:03:36;;;;;;;5.50;3.15;;;;;;;;;;10570682;27;20630;-76
2023/04/20 09:08:40;;;;;;;6.45;3.03;;;;;;;;;;10569156;27;20458;-77
2023/04/20 09:13:44;;;;;;;7.60;3.83;;;;;;;;;;10560661;27;20050;-77
2023/04/20 09:18:51;;;;;;;7.38;4.10;;;;;;;;;;10552503;27;20043;-77
2023/04/20 09:23:56;;;;;;;7.88;3.92;;;;;;;;;;10536659;28;20077;-77
2023/04/20 09:29:01;;;;;;;11.05;4.38;;;;;;;;;;10546885;27;20055;-77
2023/04/20 09:34:04;;;;;;;9.13;4.38;;;;;;;;;;10565832;27;20036;-77
2023/04/20 09:39:08;;;;;;;12.47;5.33;;;;;;;;;;10557360;27;20039;-76
2023/04/20 09:44:12;;;;;;;8.80;4.25;;;;;;;;;;10549453;27;20040;-76
2023/04/20 09:49:15;;;;;;;4.82;2.78;;;;;;;;;;10558447;27;20078;-76
2023/04/20 09:54:19;;;;;;;8.10;3.70;;;;;;;;;;10563603;27;20130;-78
2023/04/20 09:59:24;;;;;;;7.10;3.55;;;;;;;;;;10567781;27;20500;-85
2023/04/20 10:04:27;;;;;;;14.05;3.30;;;;;;;;;;10570745;28;20039;-85
2023/04/20 10:09:33;;;;;;;7.78;3.65;;;;;;;;;;10582123;27;20051;-82
2023/04/20 10:14:37;;;;;;;5.93;2.72;;;;;;;;;;10587463;28;20043;-82
2023/04/20 10:19:40;;;;;;;5.38;2.75;;;;;;;;;;10606752;27;20103;-82
2023/04/20 10:24:43;;;;;;;4.13;2.17;;;;;;;;;;10610248;27;20079;-82
2023/04/20 10:29:47;;;;;;;3.85;2.08;;;;;;;;;;10599716;27;20066;-81
2023/04/20 10:34:50;;;;;;;;;;;;;;;;;;10608485;27;20073;-82
2023/04/20 10:39:53;;;;;;;6.95;3.55;;;;;;;;;;10593918;27;19974;-82
2023/04/20 10:44:58;;;;;;;6.90;3.42;;;;;;;;;;10601558;28;20032;-82
2023/04/20 10:50:00;;;;;;;;;;;;;;;;;;10577110;27;20039;-83
2023/04/20 10:55:05;;;;;;;6.00;3.50;;;;;;;;;;10560062;27;19920;-82
2023/04/20 11:00:17;;;;;;;6.25;3.65;;;;;;;;;;10570562;27;20130;-83
2023/04/20 11:05:22;;;;;;;9.98;3.40;;;;;;;;;;10552549;28;20146;-76
2023/04/20 11:10:26;;;;;;;6.75;2.70;;;;;;;;;;10555983;27;20044;-77
2023/04/20 11:15:32;;;;;;;7.25;3.65;;;;;;;;;;10549029;28;20032;-78
2023/04/20 11:20:35;;;;;;;5.13;2.90;;;;;;;;;;10562572;28;20069;-78
2023/04/20 11:25:48;;;;;;;9.25;4.10;;;;;;;;;;10549630;28;20373;-77
2023/04/20 11:30:52;;;;;;;7.18;3.78;;;;;;;;;;10557684;28;20564;-77
2023/04/20 11:35:54;;;;;;;;;;;;;;;;;;10560368;28;20535;-77
2023/04/20 11:41:03;;;;;;;7.35;3.58;;;;;;;;;;10554335;28;19927;-77
2023/04/20 11:46:14;;;;;;;7.22;3.88;;;;;;;;;;10554089;28;20082;-76
2023/04/20 11:51:17;;;;;;;8.18;4.00;;;;;;;;;;10562875;28;20534;-77
2023/04/20 11:56:19;;;;;;;;;;;;;;;;;;10540821;28;20040;-78
2023/04/20 12:01:22;;;;;;;;;;;;;;;;;;10560529;28;20315;-78
2023/04/20 12:06:25;;;;;;;;;;;;;;;;;;10573410;27;19927;-77
2023/04/20 12:11:28;;;;;;;;;;;;;;;;;;10566409;27;19919;-76
2023/04/20 12:16:31;;;;;;;;;;;;;;;;;;10568775;27;20341;-77
2023/04/20 12:21:36;;;;;;;5.30;2.95;;;;;;;;;;10564950;27;19924;-78
2023/04/20 12:26:39;;;;;;;5.22;2.47;;;;;;;;;;10564998;27;20035;-78
2023/04/20 12:31:42;;;;;;;7.95;2.90;;;;;;;;;;10564196;27;20036;-77
2023/04/20 12:36:47;;;;;;;7.03;3.50;;;;;;;;;;10546270;27;20028;-77
2023/04/20 12:41:49;;;;;;;7.60;3.25;;;;;;;;;;10549921;27;20035;-78
2023/04/20 12:46:52;;;;;;;5.25;3.15;;;;;;;;;;10553489;27;20043;-79
2023/04/20 12:51:57;;;;;;;8.97;4.77;;;;;;;;;;10554949;27;20305;-78
2023/04/20 12:57:01;;;;;;;6.93;3.35;;;;;;;;;;10550455;27;20028;-78
2023/04/20 13:02:04;;;;;;;8.02;3.58;;;;;;;;;;10556144;27;20042;-78
2023/04/20 13:07:08;;;;;;;8.85;3.78;;;;;;;;;;10558848;27;20115;-78
2023/04/20 13:12:11;;;;;;;9.90;5.22;;;;;;;;;;10543156;27;20039;-78
2023/04/20 13:17:13;;;;;;;8.60;4.20;;;;;;;;;;10558171;27;20039;-78
2023/04/20 13:22:18;;;;;;;6.65;3.25;;;;;;;;;;10554309;27;20127;-78
2023/04/20 13:27:21;;;;;;;11.68;4.88;;;;;;;;;;10566664;27;20043;-78
2023/04/20 13:32:24;;;;;;;13.50;5.75;;;;;;;;;;10552257;27;20131;-78
2023/04/20 13:37:28;;;;;;;13.07;5.60;;;;;;;;;;10551241;27;20048;-78
2023/04/20 13:42:31;;;;;;;;;;;;;;;;;;10555084;28;20043;-78
2023/04/20 13:47:34;;;;;;;14.77;6.00;;;;;;;;;;10565343;27;20348;-78
2023/04/20 13:52:38;;;;;;;8.68;4.05;;;;;;;;;;10556658;27;20132;-77
2023/04/20 13:57:40;;;;;;;;;;;;;;;;;;10559160;27;20039;-78
2023/04/20 14:02:43;;;;;;;15.45;5.68;;;;;;;;;;10549969;27;19923;-77
2023/04/20 14:07:47;;;;;;;12.75;5.45;;;;;;;;;;10575865;27;20366;-77
2023/04/20 14:12:50;;;;;;;17.38;7.38;;;;;;;;;;10558652;27;20503;-77
2023/04/20 14:17:53;;;;;;;18.65;7.75;;;;;;;;;;10551734;27;20042;-78
2023/04/20 14:22:57;;;;;;;14.95;6.30;;;;;;;;;;10547913;28;20115;-78
2023/04/20 14:27:59;;;;;;;16.42;6.47;;;;;;;;;;10553343;27;20443;-76
2023/04/20 14:33:05;;;;;;;15.30;6.68;;;;;;;;;;10550004;27;20046;-77
2023/04/20 14:38:09;;;;;;;16.83;6.70;;;;;;;;;;10534602;28;20400;-76
2023/04/20 14:43:13;;;;;;;15.20;6.75;;;;;;;;;;10545786;28;20974;-77
2023/04/20 14:48:16;;;;;;;15.98;6.68;;;;;;;;;;10556020;27;20508;-77
2023/04/20 14:53:21;;;;;;;18.25;7.40;;;;;;;;;;10553969;27;20122;-76
2023/04/20 14:58:24;;;;;;;16.33;6.32;;;;;;;;;;10571834;27;20048;-77
2023/04/20 15:03:27;;;;;;;18.40;6.72;;;;;;;;;;10553031;27;20550;-77
2023/04/20 15:08:32;;;;;;;18.60;7.25;;;;;;;;;;10550511;28;20036;-76
2023/04/20 15:13:39;;;;;;;22.52;7.63;;;;;;;;;;10554907;27;20036;-79
2023/04/20 15:18:42;;;;;;;;;;;;;;;;;;10577659;27;20120;-76
2023/04/20 15:23:45;;;;;;;;;;;;;;;;;;10599293;28;19914;-77
2023/04/20 15:28:49;;;;;;;;;;;;;;;;;;10603503;28;19920;-76
2023/04/20 15:33:52;;;;;;;;;;;;;;;;;;10592179;28;19920;-76
2023/04/20 15:38:55;;;;;;;;;;;;;;;;;;10581201;28;19930;-75
2023/04/20 15:43:59;;;;;;;;;;;;;;;;;;10582165;27;19929;-75
2023/04/20 15:49:03;;;;;;;;;;;;;;;;;;10578326;27;19928;-74
2023/04/20 15:54:07;;;;;;;;;;;;;;;;;;10579068;27;20015;-75
2023/04/20 15:59:10;;;;;;;;;;;;;;;;;;10564369;27;20284;-75
2023/04/20 16:04:13;;;;;;;;;;;;;;;;;;10570164;27;19926;-75
2023/04/20 16:09:21;;;;;;;;;;;;;;;;;;10572809;27;19920;-80
2023/04/20 16:14:25;;;;;;;;;;;;;;;;;;10572964;27;19970;-77
2023/04/20 16:19:28;;;;;;;;;;;;;;;;;;10558718;27;19928;-78
2023/04/20 16:24:31;;;;;;;;;;;;;;;;;;10570605;27;20010;-78
2023/04/20 16:29:34;;;;;;;;;;;;;;;;;;10567196;27;19962;-78
2023/04/20 16:34:36;;;;;;;;;;;;;;;;;;10583553;27;19923;-75
2023/04/20 16:39:40;;;;;;;;;;;;;;;;;;10561040;27;21519;-77
2023/04/20 16:44:42;;;;;;;;;;;;;;;;;;10558830;27;20368;-76
2023/04/20 16:49:46;;;;;;;18.08;7.95;;;;;;;;;;10547072;27;19968;-76
2023/04/20 16:54:57;;;;;;;16.73;7.82;;;;;;;;;;10547555;27;20152;-75
2023/04/20 17:00:00;;;;;;;19.55;8.15;;;;;;;;;;10565354;27;20039;-77
2023/04/20 17:05:05;;;;;;;19.30;8.80;;;;;;;;;;10563733;27;20050;-75
2023/04/20 17:10:08;;;;;;;16.50;7.47;;;;;;;;;;10558130;27;20032;-75
2023/04/20 17:15:11;;;;;;;17.67;8.77;;;;;;;;;;10547081;27;20063;-76
2023/04/20 17:20:16;;;;;;;19.95;8.80;;;;;;;;;;10579879;27;20131;-77
2023/04/20 17:25:29;;;;;;;;;;;;;;;;;;10575020;27;20044;-76
2023/04/20 17:30:31;;;;;;;20.52;8.82;;;;;;;;;;10576030;27;19920;-76
2023/04/20 17:35:36;;;;;;;20.75;9.43;;;;;;;;;;10570799;27;20034;-75
2023/04/20 17:40:39;;;;;;;19.67;8.93;;;;;;;;;;10578281;27;20047;-75
2023/04/20 17:45:43;;;;;;;15.03;6.97;;;;;;;;;;10570882;27;20133;-76
2023/04/20 17:50:49;;;;;;;22.25;9.90;;;;;;;;;;10564456;28;20042;-76
2023/04/20 17:55:51;;;;;;;20.80;8.63;;;;;;;;;;10571574;27;20460;-76
2023/04/20 18:00:54;;;;;;;18.65;8.77;;;;;;;;;;10569999;27;20051;-76
2023/04/20 18:05:58;;;;;;;20.77;8.63;;;;;;;;;;10583395;28;20209;-76
2023/04/20 18:11:01;;;;;;;24.00;11.13;;;;;;;;;;10610757;27;20135;-76
2023/04/20 18:16:06;;;;;;;17.70;8.35;;;;;;;;;;10605732;27;20039;-76
2023/04/20 18:21:12;;;;;;;22.88;9.40;;;;;;;;;;10605195;27;20510;-76
2023/04/20 18:26:17;;;;;;;20.13;10.10;;;;;;;;;;10582107;27;20119;-76
2023/04/20 18:31:20;;;;;;;16.70;6.22;;;;;;;;;;10565944;27;20048;-77
2023/04/20 18:36:24;;;;;;;21.38;8.55;;;;;;;;;;10568003;27;20492;-76
2023/04/20 18:41:28;;;;;;;19.55;8.93;;;;;;;;;;10571186;27;20043;-75
2023/04/20 18:46:33;;;;;;;22.17;9.32;;;;;;;;;;10560142;28;20507;-76
2023/04/20 18:51:37;;;;;;;8.73;3.75;;;;;;;;;;10561037;27;20044;-75
2023/04/20 18:56:40;;;;;;;15.80;7.75;;;;;;;;;;10560915;27;20043;-75
2023/04/20 19:01:43;;;;;;;23.27;9.30;;;;;;;;;;10560685;27;20530;-76
2023/04/20 19:06:47;;;;;;;14.77;6.10;;;;;;;;;;10570261;27;20036;-77
2023/04/20 19:11:50;;;;;;;14.93;6.97;;;;;;;;;;10566721;27;20074;-77
2023/04/20 19:16:53;;;;;;;15.13;6.05;;;;;;;;;;10566428;28;20063;-77
2023/04/20 19:21:59;;;;;;;21.20;9.52;;;;;;;;;;10563773;28;20048;-76
2023/04/20 19:27:03;;;;;;;20.38;8.93;;;;;;;;;;10567303;28;20430;-77
2023/04/20 19:32:06;;;;;;;15.20;5.95;;;;;;;;;;10565936;28;20043;-77
2023/04/20 19:37:10;;;;;;;20.08;8.63;;;;;;;;;;10552708;28;20043;-79
2023/04/20 19:42:13;;;;;;;20.88;9.43;;;;;;;;;;10564095;28;20043;-77
2023/04/20 19:47:16;;;;;;;23.83;9.68;;;;;;;;;;10563173;28;20051;-78
2023/04/20 19:52:20;;;;;;;21.10;9.48;;;;;;;;;;10559208;28;20044;-78
2023/04/20 19:57:23;;;;;;;19.20;7.97;;;;;;;;;;10557746;28;20039;-79
2023/04/20 20:02:26;;;;;;;19.00;8.32;;;;;;;;;;10572160;28;20046;-78
2023/04/20 20:07:31;;;;;;;17.30;7.88;;;;;;;;;;10575765;28;20039;-78
2023/04/20 20:12:33;;;;;;;27.27;10.05;;;;;;;;;;10579072;27;20035;-79
2023/04/20 20:17:36;;;;;;;17.33;7.47;;;;;;;;;;10564967;28;20047;-79
2023/04/20 20:22:46;;;;;;;19.90;9.50;;;;;;;;;;10589199;27;20046;-77
2023/04/20 20:27:49;;;;;;;17.08;8.52;;;;;;;;;;10552667;27;20040;-78
2023/04/20 20:32:52;;;;;;;22.50;9.32;;;;;;;;;;10548369;28;20036;-75
2023/04/20 20:37:56;;;;;;;24.73;9.57;;;;;;;;;;10577182;27;20465;-77
2023/04/20 20:42:59;;;;;;;23.15;10.05;;;;;;;;;;10562042;27;20040;-76
2023/04/20 20:48:02;;;;;;;22.20;9.50;;;;;;;;;;10549637;27;20032;-77
2023/04/20 20:53:06;;;;;;;19.17;9.05;;;;;;;;;;10548580;27;20505;-78
2023/04/20 20:58:09;;;;;;;22.17;8.95;;;;;;;;;;10552929;27;20453;-77
2023/04/20 21:03:12;;;;;;;26.13;10.60;;;;;;;;;;10557512;27;20036;-77
2023/04/20 21:08:17;;;;;;;21.83;9.53;;;;;;;;;;10550728;27;20028;-75
2023/04/20 21:13:20;;;;;;;19.73;7.68;;;;;;;;;;10566185;27;20394;-76
2023/04/20 21:18:23;;;;;;;21.67;9.18;;;;;;;;;;10576755;27;20129;-75
2023/04/20 21:23:27;;;;;;;20.48;9.20;;;;;;;;;;10550733;27;20397;-76
2023/04/20 21:28:30;;;;;;;23.92;10.07;;;;;;;;;;10564548;27;20023;-77
2023/04/20 21:33:33;;;;;;;24.10;10.05;;;;;;;;;;10566637;27;20043;-75
2023/04/20 21:38:38;;;;;;;19.85;8.40;;;;;;;;;;10557484;27;20036;-76
2023/04/20 21:43:40;;;;;;;14.90;5.88;;;;;;;;;;10553005;27;20380;-75
2023/04/20 21:48:53;;;;;;;21.75;9.05;;;;;;;;;;10550229;28;20119;-76
2023/04/20 21:53:57;;;;;;;21.88;8.95;;;;;;;;;;10565789;27;20044;-76
2023/04/20 21:59:00;;;;;;;25.38;10.32;;;;;;;;;;10544984;27;20039;-75
2023/04/20 22:04:03;;;;;;;25.83;10.82;;;;;;;;;;10545927;27;20040;-76
2023/04/20 22:09:07;;;;;;;24.63;10.07;;;;;;;;;;10540194;27;20040;-76
2023/04/20 22:14:10;;;;;;;18.88;7.47;;;;;;;;;;10557575;27;20454;-76
2023/04/20 22:19:12;;;;;;;21.58;9.02;;;;;;;;;;10540012;27;20051;-76
2023/04/20 22:24:17;;;;;;;24.20;10.18;;;;;;;;;;10546199;27;20459;-74
2023/04/20 22:29:19;;;;;;;;;;;;;;;;;;10547660;27;20044;-77
2023/04/20 22:34:22;;;;;;;21.80;9.35;;;;;;;;;;10539339;28;19934;-80
2023/04/20 22:39:27;;;;;;;23.67;10.05;;;;;;;;;;10556735;27;20042;-75
2023/04/20 22:44:29;;;;;;;;;;;;;;;;;;10557435;27;20810;-74
2023/04/20 22:49:31;;;;;;;;;;;;;;;;;;10560586;27;20380;-73
2023/04/20 22:54:36;;;;;;;;;;;;;;;;;;10559835;27;20149;-77
2023/04/20 22:59:39;;;;;;;;;;;;;;;;;;10563573;27;20019;-76
2023/04/20 23:04:43;;;;;;;;;;;;;;;;;;10538027;27;19928;-77
2023/04/20 23:09:46;;;;;;;;;;;;;;;;;;10543056;27;19923;-76
2023/04/20 23:14:49;;;;;;;;;;;;;;;;;;10544925;27;19920;-76
2023/04/20 23:19:52;;;;;;;;;;;;;;;;;;10528200;28;19920;-76
2023/04/20 23:24:59;;;;;;;;;;;;;;;;;;10547314;28;19955;-76
2023/04/20 23:30:03;;;;;;;;;;;;;;;;;;10527365;28;19920;-75
2023/04/20 23:35:06;;;;;;;;;;;;;;;;;;10532475;28;19924;-75
2023/04/20 23:40:11;;;;;;;22.48;8.55;;;;;;;;;;10539210;28;20423;-75
2023/04/20 23:45:15;;;;;;;20.65;7.78;;;;;;;;;;10547312;28;20036;-76
2023/04/20 23:50:17;;;;;;;;;;;;;;;;;;10544457;28;20309;-75
2023/04/20 23:55:29;;;;;;;;;;;;;;;;;;10554129;28;20015;-76
